Terminal Aerodrome Forecast
Issued by NWS Omaha/Valley, NE

Home | Current Version | Previous Version | Graphics & Text | Print | Product List | Glossary On
Versions: 1 2 3 4 5 6 7 8 9 10 11 12 13 14 15 16 17 18 19 20 21 22 23 24 25 26 27 28 29 30 31 32 33 34 35 36 37 38
000
FTUS43 KOAX 180904 AAA
TAFOFK
TAF AMD
KOFK 180904Z 1809/1906 13005KT P6SM SCT040 BKN100
      TEMPO 1809/1812 4SM -RA BR SCT007 BKN040
     FM181500 15009KT P6SM SCT020 BKN120
     FM181900 16014KT P6SM FEW040 BKN150
     FM190000 14010KT P6SM OVC040=

USA.gov is the U.S. government's official web portal to all federal, state and local government web resources and services.